Jump to content


SOUTHWEST AIRLINES FLIGHT WN555 FLOWN ON 08-19-2017 BY CAPTAIN TYLER HANUS

Pilot StatsCaptain Tyler Hanus (LDP525) • 244.8 total hours • 53 total flights [View Logbook]
FLIGHT DETAILS
StatusReceived and approved on 2017-08-18 at 23:08:30
Origin AirportChicago Midway Intl (KMDW) • Chicago, Illinois, United States (620 feet MSL)
Filed Flight PlanKMDW JOT J101 PNT J35 SPI J101 FARGO J35 STL J101 IAH KHOU
Destination AirportHobby (KHOU) • Houston, Texas, United States (46 feet MSL)
Alternate AirportNone Filed
AirlineSouthwest Airlines
AircraftBoeing 737-800 | Winglets (73H / B737-800)
FS Aircraft UsedBoeing 737-8H4NGX Southwest Airlines (Warrior One) Winglets
Cruising AltitudeFL360
Distance Flown815 nautical miles
Passengers Onboard101 passengers (62.35% full)
DEPARTURE DETAILS
Time Out19:35:59
Taxi Data142,653 lbs total with 21,207 lbs of fuel onboard
Takeoff Data19:53:05 (17 minutes after leaving gate/ramp) • 142,054 lbs total • 9° pitch at 156 knots
Departure METARKMDW 182353Z 27011KT 10SM FEW075 FEW110 SCT250 27/15 A2985 RMK AO2 SLP099 T02670150 10283 20256 53002
ARRIVAL DETAILS
Landing Data22:15:53 • 128,298 lbs total • 1° pitch doing 133 knots at a rate of -173.01 feet/minute with 6,406 lbs of fuel onboard
Time In22:25:22 (9 minutes after landing)
Ramp Weight127,852 lbs total
Total Fuel Used14,801 lbs
Total Block Time02:46:35 (2.8 hours) while 27 minutes were spent on the ground
Arrival METARKHOU 190253Z 17006KT 10SM FEW050 SCT250 30/24 A2998 RMK AO2 SLP155 T03000244 51010
MISCELLANEOUS DETAILS
LiveDISPATCH Version4.8.3.1
FS Version
FSUIPC Version4.96
OS VersionWindows 7 32-bit
Screen Resolution1360 x 768
Pilot's CommentsNo Comments Reported
FLIGHT MAP